Clemville, Texas
Current Conditions -  °F | °C
As of 3:53 AM on Sunday 23 Nov 2014 (Local Time) from KLBX Reporting Station
Clear Clear  
Wind Chill: 59°   Ceiling: Unl
Heat Index: 59°   Visibility: 10mi
Dew Point: 59°   Wind: 6mph
Humidity: 100%   Direction: 200°SSW
Pressure: 29.67"   Gusts: NA
Location:  28.8997°N, 95.7887°W
Report Text: KLBX 230953Z AUTO 20005KT 10SM CLR 15/15 A2967 RMK AO2 SLP048 T01500150
Loading
Personal Weather Stations






























Interactive Weather Map New forecast layout! Learn more

10-Day Weather Forecast

Advertisements
Track Severe Weather on mobile